Laconia, NH

5:08 AM EST on November 29, 2014 (GMT -0500)
Concord Municipal | Change Station
CLOSE
Current Station
Airport
Location: Concord,
Elevation: 344 ft
Nearby Weather Stations

Elev 344 ft 43.20 °N, 71.50 °W | Updated 1 day ago

Clear
Clear
9 °F
Feels Like 9 °F
N
3
Wind Variable Wind from SW
Gusts 4 mph

Today
High -- | Low -- °F
--% Chance of Precip.
Yesterday
High -- | Low -- °F
Precip. -- in
6:56 AM 4:11 PM
Waxing Crescent, 50% visible
Pressure 29.96 in
Visibility 10.0 miles
Clouds
Dew Point 9 °F
Humidity 100%
Rainfall 0.01 in
Snow Depth Not available.
UV Not available.
Pollen .10 out of 12
Air Quality Not available.
Flu Activity Not available.
METAR KCON 271651Z AUTO 32007KT 10SM 00/M03 A2995 RMK AO2 SLP145 T00001028 $

More Conditions Fewer Conditions

Pressure 29.96 in
Visibility 10.0 miles
Clouds
Dew Point 9 °F
Humidity 100%
Rainfall 0.01 in
Snow Depth Not available.
UV Not available.
Pollen .10 out of 12
Air Quality Not available.
Flu Activity Not available.
METAR KCON 271651Z AUTO 32007KT 10SM 00/M03 A2995 RMK AO2 SLP145 T00001028 $

More Conditions Fewer Conditions

10-Day Weather Forecast

Almanac

Astronomy

Nov. 29, 2014 Rise Set
Actual Time
Civil Twilight
Nautical Twilight
Astronomical Twilight
Moon
Length of Visible Light
Length of Day
Tomorrow will be .
, % of the Moon is Illuminated

Today's Extremes

State Highs State Lows

Community

WunderPhotos

Upload Photos

1,774,442 photos uploaded!

WunderBlogs® & News

Nearby

Air Quality

  Air Quality AQ Index Pollutant
Not available.

Snow Depth

Station Depth Elevation

Earthquake Activity

City Distance Mag. Time & Date
Minimum magnitude displayed is 2.5.

Coastal Water Temperatures

Place Temperature

Nearby Weather Stations